sensor_id;sensor_type;location;lat;lon;timestamp;temperature;humidity
14551;DHT22;7362;50.956;4.184;2022-07-29T00:02:11;20.50;99.90
14551;DHT22;7362;50.956;4.184;2022-07-29T00:04:38;20.50;99.90
14551;DHT22;7362;50.956;4.184;2022-07-29T00:07:19;20.40;99.90
14551;DHT22;7362;50.956;4.184;2022-07-29T00:09:47;20.50;99.90
14551;DHT22;7362;50.956;4.184;2022-07-29T00:12:20;20.40;99.90
14551;DHT22;7362;50.956;4.184;2022-07-29T00:14:46;20.40;99.90
14551;DHT22;7362;50.956;4.184;2022-07-29T00:17:15;20.40;99.90
14551;DHT22;7362;50.956;4.184;2022-07-29T00:19:43;20.30;99.90
14551;DHT22;7362;50.956;4.184;2022-07-29T00:22:10;20.20;99.90
14551;DHT22;7362;50.956;4.184;2022-07-29T00:24:38;20.20;99.90
14551;DHT22;7362;50.956;4.184;2022-07-29T00:27:04;20.20;99.90
14551;DHT22;7362;50.956;4.184;2022-07-29T00:29:33;20.10;99.90
14551;DHT22;7362;50.956;4.184;2022-07-29T00:32:07;20.00;99.90
14551;DHT22;7362;50.956;4.184;2022-07-29T00:34:36;20.00;99.90
14551;DHT22;7362;50.956;4.184;2022-07-29T00:37:21;20.00;99.90
14551;DHT22;7362;50.956;4.184;2022-07-29T00:39:48;20.00;99.90
14551;DHT22;7362;50.956;4.184;2022-07-29T00:42:21;19.90;99.90
14551;DHT22;7362;50.956;4.184;2022-07-29T00:44:50;19.90;99.90
14551;DHT22;7362;50.956;4.184;2022-07-29T00:47:22;19.90;99.90
14551;DHT22;7362;50.956;4.184;2022-07-29T00:49:48;19.90;99.90
14551;DHT22;7362;50.956;4.184;2022-07-29T00:52:17;19.70;99.90
14551;DHT22;7362;50.956;4.184;2022-07-29T00:54:44;19.70;99.90
14551;DHT22;7362;50.956;4.184;2022-07-29T00:57:12;19.80;99.90
14551;DHT22;7362;50.956;4.184;2022-07-29T00:59:40;19.70;99.90
14551;DHT22;7362;50.956;4.184;2022-07-29T01:02:06;19.60;99.90
14551;DHT22;7362;50.956;4.184;2022-07-29T01:04:34;19.60;99.90
14551;DHT22;7362;50.956;4.184;2022-07-29T01:07:02;19.50;99.90
14551;DHT22;7362;50.956;4.184;2022-07-29T01:09:36;19.50;99.90
14551;DHT22;7362;50.956;4.184;2022-07-29T01:12:04;19.60;99.90
14551;DHT22;7362;50.956;4.184;2022-07-29T01:14:36;19.60;99.90
14551;DHT22;7362;50.956;4.184;2022-07-29T01:17:10;19.60;99.90
14551;DHT22;7362;50.956;4.184;2022-07-29T01:29:05;19.40;99.90
14551;DHT22;7362;50.956;4.184;2022-07-29T01:31:59;19.30;99.90
14551;DHT22;7362;50.956;4.184;2022-07-29T01:35:23;19.30;99.90
14551;DHT22;7362;50.956;4.184;2022-07-29T01:37:55;19.10;99.90
14551;DHT22;7362;50.956;4.184;2022-07-29T01:40:46;19.20;99.90
14551;DHT22;7362;50.956;4.184;2022-07-29T01:43:21;19.20;99.90
14551;DHT22;7362;50.956;4.184;2022-07-29T01:46:08;19.20;99.90
14551;DHT22;7362;50.956;4.184;2022-07-29T01:48:45;19.30;99.90
14551;DHT22;7362;50.956;4.184;2022-07-29T01:51:33;19.30;99.90
14551;DHT22;7362;50.956;4.184;2022-07-29T01:54:12;19.30;99.90
14551;DHT22;7362;50.956;4.184;2022-07-29T01:56:39;19.10;99.90
14551;DHT22;7362;50.956;4.184;2022-07-29T01:59:07;19.20;99.90
14551;DHT22;7362;50.956;4.184;2022-07-29T02:01:46;19.20;99.90
14551;DHT22;7362;50.956;4.184;2022-07-29T02:04:16;19.30;99.90
14551;DHT22;7362;50.956;4.184;2022-07-29T02:06:44;19.20;99.90
14551;DHT22;7362;50.956;4.184;2022-07-29T02:09:13;19.10;99.90
14551;DHT22;7362;50.956;4.184;2022-07-29T02:11:48;19.00;99.90
14551;DHT22;7362;50.956;4.184;2022-07-29T02:14:19;19.00;99.90
14551;DHT22;7362;50.956;4.184;2022-07-29T02:16:48;19.00;99.90
14551;DHT22;7362;50.956;4.184;2022-07-29T02:19:22;18.90;99.90
14551;DHT22;7362;50.956;4.184;2022-07-29T02:21:51;18.90;99.90
14551;DHT22;7362;50.956;4.184;2022-07-29T02:24:33;18.90;99.90
14551;DHT22;7362;50.956;4.184;2022-07-29T02:27:18;19.00;99.90
14551;DHT22;7362;50.956;4.184;2022-07-29T02:29:47;18.80;99.90
14551;DHT22;7362;50.956;4.184;2022-07-29T02:32:15;18.80;99.90
14551;DHT22;7362;50.956;4.184;2022-07-29T02:34:45;18.80;99.90
14551;DHT22;7362;50.956;4.184;2022-07-29T02:37:12;18.80;99.90
14551;DHT22;7362;50.956;4.184;2022-07-29T02:39:42;18.80;99.90
14551;DHT22;7362;50.956;4.184;2022-07-29T02:42:12;18.70;99.90
14551;DHT22;7362;50.956;4.184;2022-07-29T02:44:39;18.70;99.90
14551;DHT22;7362;50.956;4.184;2022-07-29T02:49:52;18.60;99.90
14551;DHT22;7362;50.956;4.184;2022-07-29T02:52:37;18.70;99.90
14551;DHT22;7362;50.956;4.184;2022-07-29T03:00:25;18.50;99.90
14551;DHT22;7362;50.956;4.184;2022-07-29T03:03:17;18.50;99.90
14551;DHT22;7362;50.956;4.184;2022-07-29T03:05:55;18.50;99.90
14551;DHT22;7362;50.956;4.184;2022-07-29T03:08:43;18.60;99.90
14551;DHT22;7362;50.956;4.184;2022-07-29T03:13:51;18.40;99.90
14551;DHT22;7362;50.956;4.184;2022-07-29T03:16:29;18.40;99.90
14551;DHT22;7362;50.956;4.184;2022-07-29T03:19:05;18.40;99.90
14551;DHT22;7362;50.956;4.184;2022-07-29T03:25:18;18.30;99.90
14551;DHT22;7362;50.956;4.184;2022-07-29T03:28:16;18.20;99.90
14551;DHT22;7362;50.956;4.184;2022-07-29T03:30:44;18.00;99.90
14551;DHT22;7362;50.956;4.184;2022-07-29T03:33:11;18.10;99.90
14551;DHT22;7362;50.956;4.184;2022-07-29T03:35:54;17.90;99.90
14551;DHT22;7362;50.956;4.184;2022-07-29T03:38:26;18.00;99.90
14551;DHT22;7362;50.956;4.184;2022-07-29T03:41:01;17.90;99.90
14551;DHT22;7362;50.956;4.184;2022-07-29T03:43:34;18.00;99.90
14551;DHT22;7362;50.956;4.184;2022-07-29T03:46:15;18.00;99.90
14551;DHT22;7362;50.956;4.184;2022-07-29T03:49:10;18.20;99.90
14551;DHT22;7362;50.956;4.184;2022-07-29T03:51:45;18.10;99.90
14551;DHT22;7362;50.956;4.184;2022-07-29T03:54:27;18.10;99.90
14551;DHT22;7362;50.956;4.184;2022-07-29T03:57:09;18.20;99.90
14551;DHT22;7362;50.956;4.184;2022-07-29T03:59:47;18.10;99.90
14551;DHT22;7362;50.956;4.184;2022-07-29T04:02:15;18.10;99.90
14551;DHT22;7362;50.956;4.184;2022-07-29T04:04:44;18.10;99.90
14551;DHT22;7362;50.956;4.184;2022-07-29T04:07:21;18.00;99.90
14551;DHT22;7362;50.956;4.184;2022-07-29T04:09:46;18.10;99.90
14551;DHT22;7362;50.956;4.184;2022-07-29T04:12:33;18.10;99.90
14551;DHT22;7362;50.956;4.184;2022-07-29T04:15:14;18.00;99.90
14551;DHT22;7362;50.956;4.184;2022-07-29T04:20:54;18.00;99.90
14551;DHT22;7362;50.956;4.184;2022-07-29T04:23:23;17.80;99.90
14551;DHT22;7362;50.956;4.184;2022-07-29T04:25:54;17.80;99.90
14551;DHT22;7362;50.956;4.184;2022-07-29T04:28:22;17.80;99.90
14551;DHT22;7362;50.956;4.184;2022-07-29T04:30:54;17.90;99.90
14551;DHT22;7362;50.956;4.184;2022-07-29T04:33:32;18.00;99.90
14551;DHT22;7362;50.956;4.184;2022-07-29T04:35:59;17.80;99.90
14551;DHT22;7362;50.956;4.184;2022-07-29T04:38:28;17.70;99.90
14551;DHT22;7362;50.956;4.184;2022-07-29T04:40:57;17.70;99.90
14551;DHT22;7362;50.956;4.184;2022-07-29T04:46:46;17.70;99.90
14551;DHT22;7362;50.956;4.184;2022-07-29T04:49:15;17.80;99.90
14551;DHT22;7362;50.956;4.184;2022-07-29T04:55:04;18.50;99.90
14551;DHT22;7362;50.956;4.184;2022-07-29T04:57:40;18.70;99.90
14551;DHT22;7362;50.956;4.184;2022-07-29T05:00:39;19.00;99.90
14551;DHT22;7362;50.956;4.184;2022-07-29T05:03:10;19.30;99.90
14551;DHT22;7362;50.956;4.184;2022-07-29T05:05:41;19.50;99.90
14551;DHT22;7362;50.956;4.184;2022-07-29T05:08:35;19.90;99.90
14551;DHT22;7362;50.956;4.184;2022-07-29T05:11:32;20.50;99.90
14551;DHT22;7362;50.956;4.184;2022-07-29T05:17:21;21.20;99.90
14551;DHT22;7362;50.956;4.184;2022-07-29T05:23:11;22.10;99.90
14551;DHT22;7362;50.956;4.184;2022-07-29T05:28:59;22.50;99.90
14551;DHT22;7362;50.956;4.184;2022-07-29T05:31:41;22.10;99.90
14551;DHT22;7362;50.956;4.184;2022-07-29T05:36:44;21.50;99.90
14551;DHT22;7362;50.956;4.184;2022-07-29T05:42:33;21.30;99.90
14551;DHT22;7362;50.956;4.184;2022-07-29T05:50:13;21.10;99.90
14551;DHT22;7362;50.956;4.184;2022-07-29T05:55:28;19.90;99.90
14551;DHT22;7362;50.956;4.184;2022-07-29T05:57:55;19.90;99.90
14551;DHT22;7362;50.956;4.184;2022-07-29T06:00:21;19.70;99.90
14551;DHT22;7362;50.956;4.184;2022-07-29T06:03:00;19.90;99.90
14551;DHT22;7362;50.956;4.184;2022-07-29T06:05:31;20.30;99.90
14551;DHT22;7362;50.956;4.184;2022-07-29T06:08:04;20.40;99.90
14551;DHT22;7362;50.956;4.184;2022-07-29T06:10:38;20.20;99.90
14551;DHT22;7362;50.956;4.184;2022-07-29T06:16:42;19.90;99.90
14551;DHT22;7362;50.956;4.184;2022-07-29T06:22:30;19.50;99.90
14551;DHT22;7362;50.956;4.184;2022-07-29T06:25:05;19.40;99.90
14551;DHT22;7362;50.956;4.184;2022-07-29T06:27:32;19.40;99.90
14551;DHT22;7362;50.956;4.184;2022-07-29T06:30:03;19.90;99.90
14551;DHT22;7362;50.956;4.184;2022-07-29T06:32:35;21.90;99.90
14551;DHT22;7362;50.956;4.184;2022-07-29T06:35:04;24.10;99.90
14551;DHT22;7362;50.956;4.184;2022-07-29T06:37:41;26.10;99.90
14551;DHT22;7362;50.956;4.184;2022-07-29T06:40:43;27.00;99.90
14551;DHT22;7362;50.956;4.184;2022-07-29T06:43:47;27.30;99.90
14551;DHT22;7362;50.956;4.184;2022-07-29T06:46:15;26.80;99.90
14551;DHT22;7362;50.956;4.184;2022-07-29T06:48:48;27.20;99.90
14551;DHT22;7362;50.956;4.184;2022-07-29T06:51:21;27.20;99.90
14551;DHT22;7362;50.956;4.184;2022-07-29T06:53:50;28.10;99.90
14551;DHT22;7362;50.956;4.184;2022-07-29T06:56:16;28.60;98.70
14551;DHT22;7362;50.956;4.184;2022-07-29T06:58:42;28.30;98.40
14551;DHT22;7362;50.956;4.184;2022-07-29T07:01:15;27.40;99.50
14551;DHT22;7362;50.956;4.184;2022-07-29T07:03:43;28.50;99.30
14551;DHT22;7362;50.956;4.184;2022-07-29T07:06:09;29.40;97.60
14551;DHT22;7362;50.956;4.184;2022-07-29T07:08:41;29.70;96.40
14551;DHT22;7362;50.956;4.184;2022-07-29T07:11:12;28.00;97.30
14551;DHT22;7362;50.956;4.184;2022-07-29T07:13:42;27.00;99.00
14551;DHT22;7362;50.956;4.184;2022-07-29T07:16:18;26.00;99.90
14551;DHT22;7362;50.956;4.184;2022-07-29T07:18:46;25.00;99.90
14551;DHT22;7362;50.956;4.184;2022-07-29T07:24:35;24.00;99.90
14551;DHT22;7362;50.956;4.184;2022-07-29T07:27:01;23.60;99.90
14551;DHT22;7362;50.956;4.184;2022-07-29T07:29:29;23.30;99.90
14551;DHT22;7362;50.956;4.184;2022-07-29T07:31:55;23.30;99.90
14551;DHT22;7362;50.956;4.184;2022-07-29T07:34:22;23.60;99.90
14551;DHT22;7362;50.956;4.184;2022-07-29T07:36:49;23.80;99.90
14551;DHT22;7362;50.956;4.184;2022-07-29T07:39:14;23.50;99.90
14551;DHT22;7362;50.956;4.184;2022-07-29T07:41:40;23.30;99.90
14551;DHT22;7362;50.956;4.184;2022-07-29T07:44:06;24.30;99.90
14551;DHT22;7362;50.956;4.184;2022-07-29T07:46:34;24.60;99.90
14551;DHT22;7362;50.956;4.184;2022-07-29T07:49:03;26.70;99.90
14551;DHT22;7362;50.956;4.184;2022-07-29T07:51:31;29.30;99.90
14551;DHT22;7362;50.956;4.184;2022-07-29T07:53:57;31.20;97.10
14551;DHT22;7362;50.956;4.184;2022-07-29T07:56:23;32.40;94.90
14551;DHT22;7362;50.956;4.184;2022-07-29T07:58:56;32.60;93.90
14551;DHT22;7362;50.956;4.184;2022-07-29T08:01:23;31.80;93.60
14551;DHT22;7362;50.956;4.184;2022-07-29T08:03:49;32.10;93.10
14551;DHT22;7362;50.956;4.184;2022-07-29T08:09:40;32.70;92.30
14551;DHT22;7362;50.956;4.184;2022-07-29T08:12:06;32.60;92.30
14551;DHT22;7362;50.956;4.184;2022-07-29T08:14:36;34.00;90.50
14551;DHT22;7362;50.956;4.184;2022-07-29T08:17:03;33.40;91.00
14551;DHT22;7362;50.956;4.184;2022-07-29T08:22:12;34.70;86.90
14551;DHT22;7362;50.956;4.184;2022-07-29T08:24:48;36.80;84.50
14551;DHT22;7362;50.956;4.184;2022-07-29T08:27:24;37.50;78.70
14551;DHT22;7362;50.956;4.184;2022-07-29T08:29:56;37.90;77.10
14551;DHT22;7362;50.956;4.184;2022-07-29T08:32:23;37.70;75.60
14551;DHT22;7362;50.956;4.184;2022-07-29T08:34:51;37.20;75.20
14551;DHT22;7362;50.956;4.184;2022-07-29T08:37:18;35.20;76.90
14551;DHT22;7362;50.956;4.184;2022-07-29T08:39:48;33.90;79.70
14551;DHT22;7362;50.956;4.184;2022-07-29T08:48:20;34.70;79.30
14551;DHT22;7362;50.956;4.184;2022-07-29T08:51:08;34.60;79.00
14551;DHT22;7362;50.956;4.184;2022-07-29T08:54:10;36.20;76.40
14551;DHT22;7362;50.956;4.184;2022-07-29T08:56:40;37.90;72.60
14551;DHT22;7362;50.956;4.184;2022-07-29T08:59:08;38.00;70.50
14551;DHT22;7362;50.956;4.184;2022-07-29T09:01:37;36.80;70.40
14551;DHT22;7362;50.956;4.184;2022-07-29T09:04:09;36.80;70.90
14551;DHT22;7362;50.956;4.184;2022-07-29T09:06:45;36.80;70.80
14551;DHT22;7362;50.956;4.184;2022-07-29T09:09:13;38.50;69.60
14551;DHT22;7362;50.956;4.184;2022-07-29T09:11:40;39.60;66.10
14551;DHT22;7362;50.956;4.184;2022-07-29T09:14:10;38.60;65.60
14551;DHT22;7362;50.956;4.184;2022-07-29T09:16:53;37.70;66.60
14551;DHT22;7362;50.956;4.184;2022-07-29T09:19:31;38.80;64.80
14551;DHT22;7362;50.956;4.184;2022-07-29T09:21:59;35.80;67.60
14551;DHT22;7362;50.956;4.184;2022-07-29T09:24:40;35.10;69.10
14551;DHT22;7362;50.956;4.184;2022-07-29T09:27:23;34.40;70.50
14551;DHT22;7362;50.956;4.184;2022-07-29T09:30:10;34.70;70.20
14551;DHT22;7362;50.956;4.184;2022-07-29T09:32:59;35.00;70.00
14551;DHT22;7362;50.956;4.184;2022-07-29T09:35:29;37.10;66.20
14551;DHT22;7362;50.956;4.184;2022-07-29T09:37:56;38.60;64.50
14551;DHT22;7362;50.956;4.184;2022-07-29T09:40:25;38.60;63.30
14551;DHT22;7362;50.956;4.184;2022-07-29T09:42:53;38.80;62.70
14551;DHT22;7362;50.956;4.184;2022-07-29T09:45:30;38.90;60.60
14551;DHT22;7362;50.956;4.184;2022-07-29T09:47:57;41.20;59.60
14551;DHT22;7362;50.956;4.184;2022-07-29T09:50:46;40.20;58.50
14551;DHT22;7362;50.956;4.184;2022-07-29T09:55:59;39.80;57.80
14551;DHT22;7362;50.956;4.184;2022-07-29T09:58:27;39.10;58.70
14551;DHT22;7362;50.956;4.184;2022-07-29T10:00:57;40.00;58.10
14551;DHT22;7362;50.956;4.184;2022-07-29T10:03:23;39.30;57.90
14551;DHT22;7362;50.956;4.184;2022-07-29T10:06:09;39.70;57.80
14551;DHT22;7362;50.956;4.184;2022-07-29T10:08:36;38.70;57.70
14551;DHT22;7362;50.956;4.184;2022-07-29T10:11:19;40.60;57.80
14551;DHT22;7362;50.956;4.184;2022-07-29T10:13:49;41.50;54.90
14551;DHT22;7362;50.956;4.184;2022-07-29T10:16:16;40.10;54.40
14551;DHT22;7362;50.956;4.184;2022-07-29T10:18:44;39.90;55.50
14551;DHT22;7362;50.956;4.184;2022-07-29T10:21:13;39.80;54.60
14551;DHT22;7362;50.956;4.184;2022-07-29T10:23:39;38.60;55.70
14551;DHT22;7362;50.956;4.184;2022-07-29T10:26:10;38.60;55.60
14551;DHT22;7362;50.956;4.184;2022-07-29T10:28:37;40.30;54.70
14551;DHT22;7362;50.956;4.184;2022-07-29T10:31:06;40.90;53.60
14551;DHT22;7362;50.956;4.184;2022-07-29T10:40:15;38.10;53.60
14551;DHT22;7362;50.956;4.184;2022-07-29T10:43:18;36.70;55.40
14551;DHT22;7362;50.956;4.184;2022-07-29T10:45:47;37.80;55.00
14551;DHT22;7362;50.956;4.184;2022-07-29T10:48:14;39.30;54.30
14551;DHT22;7362;50.956;4.184;2022-07-29T10:51:02;39.90;53.00
14551;DHT22;7362;50.956;4.184;2022-07-29T10:53:51;39.30;52.90
14551;DHT22;7362;50.956;4.184;2022-07-29T10:56:32;38.40;54.20
14551;DHT22;7362;50.956;4.184;2022-07-29T11:01:50;38.30;54.20
14551;DHT22;7362;50.956;4.184;2022-07-29T11:05:04;38.40;52.90
14551;DHT22;7362;50.956;4.184;2022-07-29T11:07:06;38.60;53.50
14551;DHT22;7362;50.956;4.184;2022-07-29T11:09:33;38.10;53.60
14551;DHT22;7362;50.956;4.184;2022-07-29T11:11:59;39.10;51.70
14551;DHT22;7362;50.956;4.184;2022-07-29T11:14:55;40.50;51.10
14551;DHT22;7362;50.956;4.184;2022-07-29T11:17:21;39.10;52.20
14551;DHT22;7362;50.956;4.184;2022-07-29T11:26:33;39.70;50.70
14551;DHT22;7362;50.956;4.184;2022-07-29T11:29:20;37.00;51.70
14551;DHT22;7362;50.956;4.184;2022-07-29T11:31:52;37.00;52.90
14551;DHT22;7362;50.956;4.184;2022-07-29T11:34:26;37.20;52.10
14551;DHT22;7362;50.956;4.184;2022-07-29T11:45:13;32.80;56.90
14551;DHT22;7362;50.956;4.184;2022-07-29T11:47:50;32.40;58.60
14551;DHT22;7362;50.956;4.184;2022-07-29T11:50:37;34.40;57.30
14551;DHT22;7362;50.956;4.184;2022-07-29T11:53:12;36.50;54.80
14551;DHT22;7362;50.956;4.184;2022-07-29T11:55:42;38.00;52.80
14551;DHT22;7362;50.956;4.184;2022-07-29T11:58:08;40.70;51.60
14551;DHT22;7362;50.956;4.184;2022-07-29T12:00:42;41.40;49.80
14551;DHT22;7362;50.956;4.184;2022-07-29T12:03:27;41.60;49.30
14551;DHT22;7362;50.956;4.184;2022-07-29T12:06:10;39.90;49.00
14551;DHT22;7362;50.956;4.184;2022-07-29T12:08:42;37.40;50.70
14551;DHT22;7362;50.956;4.184;2022-07-29T12:11:19;35.60;52.70
14551;DHT22;7362;50.956;4.184;2022-07-29T12:13:46;35.80;52.80
14551;DHT22;7362;50.956;4.184;2022-07-29T12:16:11;34.70;54.40
14551;DHT22;7362;50.956;4.184;2022-07-29T12:18:38;34.10;55.20
14551;DHT22;7362;50.956;4.184;2022-07-29T12:21:05;35.40;53.70
14551;DHT22;7362;50.956;4.184;2022-07-29T12:23:34;36.90;52.00
14551;DHT22;7362;50.956;4.184;2022-07-29T12:26:14;36.20;52.90
14551;DHT22;7362;50.956;4.184;2022-07-29T12:28:40;36.00;53.50
14551;DHT22;7362;50.956;4.184;2022-07-29T12:31:21;35.60;53.80
14551;DHT22;7362;50.956;4.184;2022-07-29T12:33:52;36.60;52.60
14551;DHT22;7362;50.956;4.184;2022-07-29T12:36:20;37.30;52.40
14551;DHT22;7362;50.956;4.184;2022-07-29T12:38:54;37.40;51.40
14551;DHT22;7362;50.956;4.184;2022-07-29T12:41:21;36.90;51.60
14551;DHT22;7362;50.956;4.184;2022-07-29T12:43:55;37.70;51.40
14551;DHT22;7362;50.956;4.184;2022-07-29T12:46:22;38.40;50.80
14551;DHT22;7362;50.956;4.184;2022-07-29T12:48:54;37.90;50.30
14551;DHT22;7362;50.956;4.184;2022-07-29T12:51:38;38.10;50.00
14551;DHT22;7362;50.956;4.184;2022-07-29T12:59:44;34.30;53.80
14551;DHT22;7362;50.956;4.184;2022-07-29T13:02:22;32.90;55.70
14551;DHT22;7362;50.956;4.184;2022-07-29T13:04:58;31.60;57.80
14551;DHT22;7362;50.956;4.184;2022-07-29T13:07:26;31.60;58.30
14551;DHT22;7362;50.956;4.184;2022-07-29T13:09:54;32.40;57.30
14551;DHT22;7362;50.956;4.184;2022-07-29T13:12:22;32.00;57.60
14551;DHT22;7362;50.956;4.184;2022-07-29T13:14:49;31.60;58.00
14551;DHT22;7362;50.956;4.184;2022-07-29T13:17:19;30.90;58.70
14551;DHT22;7362;50.956;4.184;2022-07-29T13:20:07;30.10;59.40
14551;DHT22;7362;50.956;4.184;2022-07-29T13:22:34;29.70;60.70
14551;DHT22;7362;50.956;4.184;2022-07-29T13:25:01;30.20;60.80
14551;DHT22;7362;50.956;4.184;2022-07-29T13:27:29;29.70;60.30
14551;DHT22;7362;50.956;4.184;2022-07-29T13:29:59;29.80;60.40
14551;DHT22;7362;50.956;4.184;2022-07-29T13:32:27;29.70;61.50
14551;DHT22;7362;50.956;4.184;2022-07-29T13:34:57;29.40;61.30
14551;DHT22;7362;50.956;4.184;2022-07-29T13:37:28;29.80;61.80
14551;DHT22;7362;50.956;4.184;2022-07-29T13:39:56;30.30;60.90
14551;DHT22;7362;50.956;4.184;2022-07-29T13:42:23;30.50;60.20
14551;DHT22;7362;50.956;4.184;2022-07-29T13:44:48;30.70;60.40
14551;DHT22;7362;50.956;4.184;2022-07-29T13:47:17;30.80;60.00
14551;DHT22;7362;50.956;4.184;2022-07-29T13:49:43;30.80;60.80
14551;DHT22;7362;50.956;4.184;2022-07-29T13:52:09;31.30;59.80
14551;DHT22;7362;50.956;4.184;2022-07-29T13:54:34;31.70;60.10
14551;DHT22;7362;50.956;4.184;2022-07-29T13:57:06;31.30;59.80
14551;DHT22;7362;50.956;4.184;2022-07-29T13:59:32;30.90;59.80
14551;DHT22;7362;50.956;4.184;2022-07-29T14:01:57;30.90;59.30
14551;DHT22;7362;50.956;4.184;2022-07-29T14:04:23;31.10;59.70
14551;DHT22;7362;50.956;4.184;2022-07-29T14:06:49;31.00;60.10
14551;DHT22;7362;50.956;4.184;2022-07-29T14:09:15;31.10;59.20
14551;DHT22;7362;50.956;4.184;2022-07-29T14:11:41;30.90;58.80
14551;DHT22;7362;50.956;4.184;2022-07-29T14:14:07;30.60;59.40
14551;DHT22;7362;50.956;4.184;2022-07-29T14:16:33;30.20;60.70
14551;DHT22;7362;50.956;4.184;2022-07-29T14:18:59;29.80;61.10
14551;DHT22;7362;50.956;4.184;2022-07-29T14:21:26;29.40;61.70
14551;DHT22;7362;50.956;4.184;2022-07-29T14:23:52;28.90;63.30
14551;DHT22;7362;50.956;4.184;2022-07-29T14:26:19;28.70;63.50
14551;DHT22;7362;50.956;4.184;2022-07-29T14:28:45;28.60;64.20
14551;DHT22;7362;50.956;4.184;2022-07-29T14:31:10;28.40;64.70
14551;DHT22;7362;50.956;4.184;2022-07-29T14:33:36;28.30;65.40
14551;DHT22;7362;50.956;4.184;2022-07-29T14:36:03;28.40;65.00
14551;DHT22;7362;50.956;4.184;2022-07-29T14:38:28;28.30;65.10
14551;DHT22;7362;50.956;4.184;2022-07-29T14:40:54;28.20;64.80
14551;DHT22;7362;50.956;4.184;2022-07-29T14:43:20;28.30;65.40
14551;DHT22;7362;50.956;4.184;2022-07-29T14:45:45;28.20;65.50
14551;DHT22;7362;50.956;4.184;2022-07-29T14:48:11;28.30;66.10
14551;DHT22;7362;50.956;4.184;2022-07-29T14:50:39;27.70;66.70
14551;DHT22;7362;50.956;4.184;2022-07-29T14:53:07;27.50;67.90
14551;DHT22;7362;50.956;4.184;2022-07-29T14:55:34;27.50;68.20
14551;DHT22;7362;50.956;4.184;2022-07-29T14:58:01;27.50;68.80
14551;DHT22;7362;50.956;4.184;2022-07-29T15:00:26;27.60;69.00
14551;DHT22;7362;50.956;4.184;2022-07-29T15:02:52;27.60;68.50
14551;DHT22;7362;50.956;4.184;2022-07-29T15:05:18;27.60;69.10
14551;DHT22;7362;50.956;4.184;2022-07-29T15:07:43;27.40;68.80
14551;DHT22;7362;50.956;4.184;2022-07-29T15:10:09;27.20;70.10
14551;DHT22;7362;50.956;4.184;2022-07-29T15:12:35;27.10;70.40
14551;DHT22;7362;50.956;4.184;2022-07-29T15:15:01;27.10;70.30
14551;DHT22;7362;50.956;4.184;2022-07-29T15:17:26;27.30;69.20
14551;DHT22;7362;50.956;4.184;2022-07-29T15:19:52;27.40;70.50
14551;DHT22;7362;50.956;4.184;2022-07-29T15:22:18;27.40;70.10
14551;DHT22;7362;50.956;4.184;2022-07-29T15:24:43;27.20;68.90
14551;DHT22;7362;50.956;4.184;2022-07-29T15:27:10;27.10;69.00
14551;DHT22;7362;50.956;4.184;2022-07-29T15:29:41;27.20;69.60
14551;DHT22;7362;50.956;4.184;2022-07-29T15:32:07;27.20;70.80
14551;DHT22;7362;50.956;4.184;2022-07-29T15:34:33;27.40;69.50
14551;DHT22;7362;50.956;4.184;2022-07-29T15:36:58;27.40;70.60
14551;DHT22;7362;50.956;4.184;2022-07-29T15:39:24;27.50;69.20
14551;DHT22;7362;50.956;4.184;2022-07-29T15:41:51;27.70;68.80
14551;DHT22;7362;50.956;4.184;2022-07-29T15:44:17;27.70;70.00
14551;DHT22;7362;50.956;4.184;2022-07-29T15:46:43;27.80;69.30
14551;DHT22;7362;50.956;4.184;2022-07-29T15:49:34;27.80;68.10
14551;DHT22;7362;50.956;4.184;2022-07-29T15:52:02;27.90;68.20
14551;DHT22;7362;50.956;4.184;2022-07-29T15:54:29;27.60;68.70
14551;DHT22;7362;50.956;4.184;2022-07-29T15:56:55;27.60;68.70
14551;DHT22;7362;50.956;4.184;2022-07-29T15:59:21;27.90;68.20
14551;DHT22;7362;50.956;4.184;2022-07-29T16:01:47;27.80;68.40
14551;DHT22;7362;50.956;4.184;2022-07-29T16:04:14;28.00;69.30
14551;DHT22;7362;50.956;4.184;2022-07-29T16:06:40;28.00;68.30
14551;DHT22;7362;50.956;4.184;2022-07-29T16:09:06;27.90;68.80
14551;DHT22;7362;50.956;4.184;2022-07-29T16:11:32;27.90;68.70
14551;DHT22;7362;50.956;4.184;2022-07-29T16:13:58;27.70;68.80
14551;DHT22;7362;50.956;4.184;2022-07-29T16:16:25;27.70;69.00
14551;DHT22;7362;50.956;4.184;2022-07-29T16:18:50;27.80;68.20
14551;DHT22;7362;50.956;4.184;2022-07-29T16:21:16;27.70;69.00
14551;DHT22;7362;50.956;4.184;2022-07-29T16:23:42;27.70;69.70
14551;DHT22;7362;50.956;4.184;2022-07-29T16:26:08;27.70;69.90
14551;DHT22;7362;50.956;4.184;2022-07-29T16:28:33;27.80;70.10
14551;DHT22;7362;50.956;4.184;2022-07-29T16:30:59;27.90;70.50
14551;DHT22;7362;50.956;4.184;2022-07-29T16:33:25;27.90;69.80
14551;DHT22;7362;50.956;4.184;2022-07-29T16:35:51;28.10;69.40
14551;DHT22;7362;50.956;4.184;2022-07-29T16:38:17;28.10;69.10
14551;DHT22;7362;50.956;4.184;2022-07-29T16:40:43;28.20;69.40
14551;DHT22;7362;50.956;4.184;2022-07-29T16:43:09;28.20;69.50
14551;DHT22;7362;50.956;4.184;2022-07-29T16:45:35;28.30;70.00
14551;DHT22;7362;50.956;4.184;2022-07-29T16:48:01;28.30;69.20
14551;DHT22;7362;50.956;4.184;2022-07-29T16:50:28;28.10;69.80
14551;DHT22;7362;50.956;4.184;2022-07-29T16:52:54;27.90;70.70
14551;DHT22;7362;50.956;4.184;2022-07-29T16:55:20;27.80;71.20
14551;DHT22;7362;50.956;4.184;2022-07-29T16:57:46;27.80;71.40
14551;DHT22;7362;50.956;4.184;2022-07-29T17:00:14;27.80;71.20
14551;DHT22;7362;50.956;4.184;2022-07-29T17:02:41;27.70;71.70
14551;DHT22;7362;50.956;4.184;2022-07-29T17:05:08;27.60;71.40
14551;DHT22;7362;50.956;4.184;2022-07-29T17:07:35;27.50;71.50
14551;DHT22;7362;50.956;4.184;2022-07-29T17:10:01;27.50;72.40
14551;DHT22;7362;50.956;4.184;2022-07-29T17:12:30;27.60;72.10
14551;DHT22;7362;50.956;4.184;2022-07-29T17:14:56;27.70;71.90
14551;DHT22;7362;50.956;4.184;2022-07-29T17:17:22;28.00;71.30
14551;DHT22;7362;50.956;4.184;2022-07-29T17:19:48;28.10;70.90
14551;DHT22;7362;50.956;4.184;2022-07-29T17:22:14;28.00;71.30
14551;DHT22;7362;50.956;4.184;2022-07-29T17:24:40;28.10;71.70
14551;DHT22;7362;50.956;4.184;2022-07-29T17:27:07;28.00;72.10
14551;DHT22;7362;50.956;4.184;2022-07-29T17:29:33;27.90;71.30
14551;DHT22;7362;50.956;4.184;2022-07-29T17:31:59;27.80;71.40
14551;DHT22;7362;50.956;4.184;2022-07-29T17:34:25;27.80;72.40
14551;DHT22;7362;50.956;4.184;2022-07-29T17:36:51;27.60;72.70
14551;DHT22;7362;50.956;4.184;2022-07-29T17:39:16;27.30;73.20
14551;DHT22;7362;50.956;4.184;2022-07-29T17:41:42;27.10;74.30
14551;DHT22;7362;50.956;4.184;2022-07-29T17:44:11;27.00;75.30
14551;DHT22;7362;50.956;4.184;2022-07-29T17:46:37;27.00;76.20
14551;DHT22;7362;50.956;4.184;2022-07-29T17:49:05;27.00;76.40
14551;DHT22;7362;50.956;4.184;2022-07-29T17:51:31;26.80;77.10
14551;DHT22;7362;50.956;4.184;2022-07-29T17:53:57;26.70;77.90
14551;DHT22;7362;50.956;4.184;2022-07-29T17:56:24;26.60;78.50
14551;DHT22;7362;50.956;4.184;2022-07-29T17:58:50;26.30;79.50
14551;DHT22;7362;50.956;4.184;2022-07-29T18:01:16;26.20;79.80
14551;DHT22;7362;50.956;4.184;2022-07-29T18:03:42;26.00;80.90